createdAt,value
2018-06-19T00:02:38.259Z,15.46
2018-06-19T00:05:38.252Z,15.52
2018-06-19T00:08:38.184Z,15.56
2018-06-19T00:11:38.186Z,15.60
2018-06-19T00:14:38.124Z,15.64
2018-06-19T00:17:38.211Z,15.66
2018-06-19T00:20:38.052Z,15.59
2018-06-19T00:23:38.056Z,15.59
2018-06-19T00:26:37.998Z,15.54
2018-06-19T00:29:37.968Z,15.46
2018-06-19T00:32:37.919Z,15.42
2018-06-19T00:35:37.906Z,15.33
2018-06-19T00:38:37.851Z,15.28
2018-06-19T00:41:37.837Z,15.39
2018-06-19T00:44:37.778Z,15.36
2018-06-19T00:47:37.774Z,15.24
2018-06-19T00:50:37.718Z,15.13
2018-06-19T00:53:37.721Z,15.19
2018-06-19T00:56:37.692Z,15.17
2018-06-19T00:59:37.647Z,15.17
2018-06-19T01:02:37.576Z,15.19
2018-06-19T01:05:37.560Z,15.13
2018-06-19T01:09:06.809Z,15.11
2018-06-19T01:11:37.489Z,15.13
2018-06-19T01:14:37.449Z,15.19
2018-06-19T01:17:37.424Z,15.02
2018-06-19T01:20:37.376Z,15.05
2018-06-19T01:23:37.369Z,15.02
2018-06-19T01:26:37.301Z,14.99
2018-06-19T01:29:37.296Z,14.98
2018-06-19T01:32:37.243Z,14.94
2018-06-19T01:35:37.232Z,15.01
2018-06-19T01:38:37.179Z,14.94
2018-06-19T01:41:37.149Z,14.95
2018-06-19T01:44:37.108Z,15.03
2018-06-19T01:47:37.076Z,14.98
2018-06-19T01:50:37.037Z,14.95
2018-06-19T01:53:37.033Z,14.91
2018-06-19T01:56:36.966Z,14.91
2018-06-19T01:59:36.938Z,14.78
2018-06-19T02:02:36.903Z,14.72
2018-06-19T02:05:36.885Z,14.71
2018-06-19T02:08:36.835Z,14.84
2018-06-19T02:11:36.804Z,14.80
2018-06-19T02:14:36.767Z,14.80
2018-06-19T02:17:41.190Z,14.87
2018-06-19T02:20:36.696Z,14.88
2018-06-19T02:23:36.675Z,14.74
2018-06-19T02:26:36.631Z,14.80
2018-06-19T02:29:36.610Z,14.68
2018-06-19T02:32:36.563Z,14.75
2018-06-19T02:35:36.531Z,14.81
2018-06-19T02:38:36.494Z,14.69
2018-06-19T02:41:36.473Z,14.62
2018-06-19T02:44:36.427Z,14.60
2018-06-19T02:47:36.393Z,14.64
2018-06-19T02:50:36.361Z,14.65
2018-06-19T02:53:36.346Z,14.78
2018-06-19T02:56:36.292Z,14.86
2018-06-19T02:59:36.269Z,14.88
2018-06-19T03:02:36.227Z,14.75
2018-06-19T03:05:36.194Z,14.78
2018-06-19T03:08:45.214Z,14.65
2018-06-19T03:11:36.118Z,14.72
2018-06-19T03:14:36.081Z,14.81
2018-06-19T03:17:36.058Z,14.90
2018-06-19T03:20:36.007Z,14.98
2018-06-19T03:23:36.005Z,14.98
2018-06-19T03:26:35.944Z,15.13
2018-06-19T03:29:35.927Z,15.12
2018-06-19T03:32:35.869Z,15.03
2018-06-19T03:35:35.873Z,15.13
2018-06-19T03:38:35.811Z,14.95
2018-06-19T03:41:35.973Z,15.03
2018-06-19T03:44:35.736Z,15.19
2018-06-19T03:47:35.729Z,15.30
2018-06-19T03:50:35.673Z,15.42
2018-06-19T03:53:35.658Z,15.52
2018-06-19T03:56:35.612Z,15.56
2018-06-19T03:59:35.591Z,15.70
2018-06-19T04:02:35.538Z,15.79
2018-06-19T04:05:35.515Z,15.79
2018-06-19T04:08:35.482Z,15.93
2018-06-19T04:11:35.459Z,15.96
2018-06-19T04:14:35.410Z,15.89
2018-06-19T04:17:35.377Z,15.81
2018-06-19T04:20:35.348Z,15.89
2018-06-19T04:23:35.320Z,15.82
2018-06-19T04:26:35.267Z,15.79
2018-06-19T04:29:35.239Z,15.76
2018-06-19T04:32:35.200Z,15.72
2018-06-19T04:35:35.181Z,15.79
2018-06-19T04:38:35.130Z,15.75
2018-06-19T04:41:35.114Z,15.86
2018-06-19T04:44:35.065Z,15.81
2018-06-19T04:47:35.051Z,15.81
2018-06-19T04:50:35.003Z,15.85
2018-06-19T04:53:34.973Z,15.81
2018-06-19T04:56:34.926Z,15.86
2018-06-19T04:59:34.902Z,15.96
2018-06-19T05:02:34.865Z,15.97
2018-06-19T05:05:34.860Z,15.99
2018-06-19T05:08:34.792Z,15.99
2018-06-19T05:11:34.779Z,16.03
2018-06-19T05:14:34.728Z,16.25
2018-06-19T05:17:34.713Z,16.15
2018-06-19T05:20:34.673Z,16.25
2018-06-19T05:23:34.642Z,16.34
2018-06-19T05:26:34.613Z,16.42
2018-06-19T05:29:34.561Z,16.35
2018-06-19T05:32:34.542Z,16.52
2018-06-19T05:35:34.498Z,16.50
2018-06-19T05:38:34.462Z,16.52
2018-06-19T05:41:34.446Z,16.60
2018-06-19T05:44:34.378Z,16.68
2018-06-19T05:47:34.389Z,16.78
2018-06-19T05:50:34.323Z,16.77
2018-06-19T05:53:34.327Z,16.78
2018-06-19T05:56:34.255Z,16.88
2018-06-19T05:59:34.229Z,16.96
2018-06-19T06:02:34.174Z,17.10
2018-06-19T06:05:34.208Z,17.26
2018-06-19T06:08:34.127Z,17.25
2018-06-19T06:11:34.095Z,17.30
2018-06-19T06:14:34.041Z,17.54
2018-06-19T06:17:34.035Z,17.67
2018-06-19T06:20:33.974Z,17.63
2018-06-19T06:23:33.980Z,17.66
2018-06-19T06:26:33.910Z,17.91
2018-06-19T06:29:33.912Z,17.99
2018-06-19T06:32:33.841Z,17.99
2018-06-19T06:35:33.838Z,18.17
2018-06-19T06:38:33.788Z,18.25
2018-06-19T06:41:33.762Z,18.06
2018-06-19T06:44:33.727Z,18.12
2018-06-19T06:47:33.682Z,18.13
2018-06-19T06:50:33.725Z,18.44
2018-06-19T06:53:33.640Z,18.73
2018-06-19T06:56:33.575Z,19.06
2018-06-19T06:59:33.560Z,18.74
2018-06-19T07:02:33.500Z,18.74
2018-06-19T07:05:33.491Z,18.70
2018-06-19T07:08:33.445Z,18.59
2018-06-19T07:11:33.496Z,18.52
2018-06-19T07:14:33.376Z,18.58
2018-06-19T07:17:33.356Z,18.52
2018-06-19T07:20:33.308Z,18.44
2018-06-19T07:23:33.294Z,18.65
2018-06-19T07:26:33.242Z,18.72
2018-06-19T07:29:33.212Z,18.62
2018-06-19T07:32:33.174Z,18.49
2018-06-19T07:35:33.167Z,18.74
2018-06-19T07:38:33.114Z,18.73
2018-06-19T07:41:33.076Z,18.67
2018-06-19T07:44:33.044Z,18.87
2018-06-19T07:47:33.016Z,19.01
2018-06-19T07:50:32.968Z,18.82
2018-06-19T07:53:32.950Z,18.97
2018-06-19T07:56:32.902Z,18.82
2018-06-19T07:59:32.888Z,18.82
2018-06-19T08:02:32.829Z,18.91
2018-06-19T08:05:32.851Z,19.10
2018-06-19T08:08:32.764Z,18.99
2018-06-19T08:11:32.747Z,19.32
2018-06-19T08:14:32.708Z,19.36
2018-06-19T08:17:32.687Z,18.90
2018-06-19T08:20:32.630Z,18.74
2018-06-19T08:23:32.630Z,18.99
2018-06-19T08:26:32.563Z,19.20
2018-06-19T08:29:32.542Z,19.23
2018-06-19T08:32:32.515Z,19.25
2018-06-19T08:35:32.495Z,19.24
2018-06-19T08:38:32.432Z,19.32
2018-06-19T08:41:32.437Z,19.40
2018-06-19T08:44:32.385Z,19.23
2018-06-19T08:47:32.357Z,19.28
2018-06-19T08:50:32.306Z,19.32
2018-06-19T08:53:32.291Z,19.48
2018-06-19T08:56:32.263Z,19.51
2018-06-19T08:59:32.251Z,19.36
2018-06-19T09:02:32.171Z,19.29
2018-06-19T09:05:32.155Z,19.46
2018-06-19T09:08:32.104Z,19.43
2018-06-19T09:11:32.084Z,19.57
2018-06-19T09:14:32.032Z,20.05
2018-06-19T09:17:32.029Z,20.10
2018-06-19T09:20:31.964Z,19.98
2018-06-19T09:23:32.225Z,20.16
2018-06-19T09:26:31.901Z,20.30
2018-06-19T09:29:31.882Z,20.12
2018-06-19T09:32:31.836Z,19.78
2018-06-19T09:35:31.866Z,19.75
2018-06-19T09:38:33.193Z,19.76
2018-06-19T09:41:31.774Z,20.08
2018-06-19T09:44:31.718Z,20.69
2018-06-19T09:47:32.011Z,21.01
2018-06-19T09:50:31.636Z,20.77
2018-06-19T09:53:31.665Z,20.87
2018-06-19T09:56:31.586Z,20.47
2018-06-19T09:59:31.611Z,21.42
2018-06-19T10:02:31.506Z,22.22
2018-06-19T10:05:31.489Z,22.49
2018-06-19T10:08:32.752Z,22.96
2018-06-19T10:11:31.429Z,22.27
2018-06-19T10:14:31.401Z,22.32
2018-06-19T10:17:31.358Z,22.97
2018-06-19T10:20:31.345Z,22.46
2018-06-19T10:23:31.312Z,22.56
2018-06-19T10:26:31.250Z,22.93
2018-06-19T10:29:31.268Z,23.72
2018-06-19T10:32:31.232Z,23.65
2018-06-19T10:35:31.166Z,22.35
2018-06-19T10:38:31.124Z,22.37
2018-06-19T10:41:31.105Z,23.19
2018-06-19T10:44:31.088Z,23.55
2018-06-19T10:47:34.578Z,24.12
2018-06-19T10:50:30.999Z,23.55
2018-06-19T10:53:30.979Z,23.61
2018-06-19T10:56:33.715Z,23.35
2018-06-19T10:59:30.933Z,23.89
2018-06-19T11:02:30.872Z,24.49
2018-06-19T11:05:30.848Z,24.47
2018-06-19T11:08:32.246Z,25.05
2018-06-19T11:11:30.792Z,24.67
2018-06-19T11:14:30.742Z,24.01
2018-06-19T11:17:30.722Z,23.58
2018-06-19T11:20:30.679Z,23.47
2018-06-19T11:23:30.677Z,24.07
2018-06-19T11:26:30.618Z,25.42
2018-06-19T11:29:30.597Z,24.68
2018-06-19T11:32:30.562Z,23.87
2018-06-19T11:35:30.532Z,23.27
2018-06-19T11:38:37.476Z,22.89
2018-06-19T11:41:30.466Z,23.07
2018-06-19T11:44:30.434Z,22.80
2018-06-19T11:47:32.845Z,22.77
2018-06-19T11:50:30.364Z,22.65
2018-06-19T11:53:30.338Z,22.78
2018-06-19T11:56:37.199Z,22.59
2018-06-19T11:59:30.272Z,22.44
2018-06-19T12:02:30.228Z,22.54
2018-06-19T12:05:30.205Z,22.50
2018-06-19T12:08:30.166Z,22.83
2018-06-19T12:11:30.137Z,23.26
2018-06-19T12:14:30.095Z,23.79
2018-06-19T12:17:30.077Z,23.85
2018-06-19T12:20:30.029Z,23.87
2018-06-19T12:23:30.033Z,24.02
2018-06-19T12:26:29.964Z,23.55
2018-06-19T12:29:29.953Z,23.23
2018-06-19T12:32:29.911Z,23.07
2018-06-19T12:35:29.879Z,23.26
2018-06-19T12:38:47.477Z,22.89
2018-06-19T12:41:29.818Z,22.16
2018-06-19T12:44:29.776Z,22.14
2018-06-19T12:47:29.766Z,22.71
2018-06-19T12:50:29.725Z,23.02
2018-06-19T12:53:29.682Z,23.31
2018-06-19T12:56:29.644Z,22.93
2018-06-19T12:59:29.628Z,23.20
2018-06-19T13:02:29.577Z,23.15
2018-06-19T13:05:29.564Z,22.59
2018-06-19T13:08:29.592Z,22.93
2018-06-19T13:11:29.482Z,22.86
2018-06-19T13:14:29.447Z,22.56
2018-06-19T13:17:43.961Z,21.36
2018-06-19T13:20:29.370Z,20.98
2018-06-19T13:23:29.361Z,20.76
2018-06-19T13:26:29.308Z,20.58
2018-06-19T13:29:29.303Z,20.42
2018-06-19T13:32:29.251Z,20.39
2018-06-19T13:35:29.293Z,20.53
2018-06-19T13:38:29.177Z,20.95
2018-06-19T13:41:29.146Z,21.45
2018-06-19T13:44:29.113Z,21.94
2018-06-19T13:47:29.080Z,22.37
2018-06-19T13:50:29.064Z,22.83
2018-06-19T13:53:29.021Z,22.87
2018-06-19T13:56:28.973Z,23.05
2018-06-19T13:59:28.964Z,24.29
2018-06-19T14:02:28.908Z,24.61
2018-06-19T14:05:28.895Z,24.56
2018-06-19T14:08:28.838Z,25.87
2018-06-19T14:11:28.889Z,25.62
2018-06-19T14:14:28.825Z,26.59
2018-06-19T14:17:34.519Z,27.39
2018-06-19T14:20:28.767Z,28.06
2018-06-19T14:23:28.751Z,28.75
2018-06-19T14:26:28.668Z,28.63
2018-06-19T14:29:28.651Z,28.10
2018-06-19T14:32:28.611Z,27.02
2018-06-19T14:35:28.583Z,26.50
2018-06-19T14:38:51.823Z,26.49
2018-06-19T14:41:28.544Z,25.49
2018-06-19T14:44:28.475Z,25.28
2018-06-19T14:47:28.453Z,24.64
2018-06-19T14:50:28.431Z,24.68
2018-06-19T14:53:28.395Z,24.12
2018-06-19T14:56:28.380Z,24.59
2018-06-19T14:59:28.327Z,24.49
2018-06-19T15:02:28.303Z,24.34
2018-06-19T15:05:28.263Z,24.85
2018-06-19T15:08:44.083Z,25.13
2018-06-19T15:11:28.245Z,24.52
2018-06-19T15:14:28.154Z,24.35
2018-06-19T15:17:28.148Z,24.29
2018-06-19T15:20:28.091Z,24.31
2018-06-19T15:23:28.077Z,24.59
2018-06-19T15:26:28.024Z,24.61
2018-06-19T15:29:28.004Z,24.50
2018-06-19T15:32:28.010Z,24.35
2018-06-19T15:35:27.975Z,24.47
2018-06-19T15:38:27.901Z,24.26
2018-06-19T15:41:27.884Z,24.13
2018-06-19T15:44:27.829Z,23.39
2018-06-19T15:47:27.811Z,23.09
2018-06-19T15:50:27.759Z,22.86
2018-06-19T15:53:27.757Z,22.89
2018-06-19T15:56:27.698Z,22.80
2018-06-19T15:59:27.678Z,22.89
2018-06-19T16:02:27.641Z,23.07
2018-06-19T16:05:27.614Z,22.62
2018-06-19T16:08:27.565Z,22.64
2018-06-19T16:11:27.557Z,22.80
2018-06-19T16:14:27.495Z,22.71
2018-06-19T16:17:27.496Z,22.64
2018-06-19T16:20:27.434Z,22.89
2018-06-19T16:23:27.423Z,22.84
2018-06-19T16:26:27.376Z,22.89
2018-06-19T16:29:27.967Z,23.11
2018-06-19T16:32:27.324Z,22.78
2018-06-19T16:35:27.283Z,22.72
2018-06-19T16:38:27.231Z,22.53
2018-06-19T16:41:27.206Z,22.52
2018-06-19T16:44:27.165Z,22.38
2018-06-19T16:47:28.486Z,22.09
2018-06-19T16:50:27.106Z,21.95
2018-06-19T16:53:27.074Z,22.01
2018-06-19T16:56:27.036Z,22.04
2018-06-19T16:59:27.019Z,22.12
2018-06-19T17:02:26.965Z,22.12
2018-06-19T17:05:26.951Z,22.06
2018-06-19T17:08:26.903Z,21.94
2018-06-19T17:11:26.888Z,21.95
2018-06-19T17:14:26.829Z,21.79
2018-06-19T17:17:26.813Z,21.90
2018-06-19T17:20:26.779Z,21.82
2018-06-19T17:23:26.753Z,21.85
2018-06-19T17:26:26.705Z,21.92
2018-06-19T17:29:26.682Z,21.94
2018-06-19T17:32:26.624Z,21.91
2018-06-19T17:35:26.628Z,21.91
2018-06-19T17:38:26.575Z,21.95
2018-06-19T17:41:26.566Z,22.09
2018-06-19T17:44:26.490Z,21.95
2018-06-19T17:47:27.503Z,22.01
2018-06-19T17:50:26.438Z,21.85
2018-06-19T17:53:26.401Z,21.67
2018-06-19T17:56:26.371Z,21.53
2018-06-19T17:59:26.342Z,21.46
2018-06-19T18:02:26.319Z,21.61
2018-06-19T18:05:26.277Z,21.64
2018-06-19T18:08:26.245Z,21.71
2018-06-19T18:11:26.218Z,21.74
2018-06-19T18:14:26.164Z,21.36
2018-06-19T18:17:26.137Z,21.44
2018-06-19T18:20:26.118Z,21.38
2018-06-19T18:23:26.089Z,21.30
2018-06-19T18:26:26.052Z,21.17
2018-06-19T18:29:25.998Z,20.96
2018-06-19T18:32:25.973Z,20.99
2018-06-19T18:35:25.951Z,20.93
2018-06-19T18:38:25.912Z,20.99
2018-06-19T18:41:25.891Z,20.86
2018-06-19T18:44:25.824Z,20.83
2018-06-19T18:47:25.840Z,20.81
2018-06-19T18:50:25.771Z,20.77
2018-06-19T18:53:25.746Z,20.68
2018-06-19T18:56:25.689Z,20.68
2018-06-19T18:59:25.662Z,20.72
2018-06-19T19:02:25.630Z,20.68
2018-06-19T19:05:25.612Z,20.56
2018-06-19T19:08:25.555Z,20.53
2018-06-19T19:11:25.563Z,20.54
2018-06-19T19:14:25.490Z,20.46
2018-06-19T19:17:25.510Z,20.43
2018-06-19T19:20:25.442Z,20.35
2018-06-19T19:23:25.400Z,20.41
2018-06-19T19:26:25.357Z,20.34
2018-06-19T19:29:25.388Z,20.28
2018-06-19T19:32:25.335Z,20.18
2018-06-19T19:35:25.284Z,20.18
2018-06-19T19:38:25.238Z,20.10
2018-06-19T19:41:25.196Z,20.09
2018-06-19T19:44:25.189Z,20.05
2018-06-19T19:47:52.758Z,19.98
2018-06-19T19:50:25.078Z,19.98
2018-06-19T19:53:25.061Z,19.95
2018-06-19T19:56:25.008Z,19.94
2018-06-19T19:59:25.495Z,19.87
2018-06-19T20:02:24.952Z,19.84
2018-06-19T20:05:24.945Z,19.79
2018-06-19T20:08:24.885Z,19.84
2018-06-19T20:11:24.875Z,19.76
2018-06-19T20:14:24.812Z,19.78
2018-06-19T20:17:24.832Z,19.80
2018-06-19T20:20:24.779Z,19.68
2018-06-19T20:23:24.724Z,19.68
2018-06-19T20:26:24.694Z,19.68
2018-06-19T20:29:24.677Z,19.76
2018-06-19T20:32:24.609Z,19.68
2018-06-19T20:35:24.622Z,19.70
2018-06-19T20:38:24.563Z,19.68
2018-06-19T20:41:24.554Z,19.65
2018-06-19T20:44:24.480Z,19.65
2018-06-19T20:47:24.455Z,19.57
2018-06-19T20:50:24.493Z,19.66
2018-06-19T20:53:24.386Z,19.54
2018-06-19T20:56:24.331Z,19.58
2018-06-19T20:59:24.326Z,19.51
2018-06-19T21:02:24.269Z,19.47
2018-06-19T21:05:24.279Z,19.43
2018-06-19T21:08:24.215Z,19.39
2018-06-19T21:11:24.180Z,19.35
2018-06-19T21:14:24.125Z,19.25
2018-06-19T21:17:24.117Z,19.36
2018-06-19T21:20:24.054Z,19.33
2018-06-19T21:23:24.049Z,19.43
2018-06-19T21:26:24.011Z,19.25
2018-06-19T21:29:23.991Z,19.24
2018-06-19T21:32:23.923Z,19.35
2018-06-19T21:35:23.920Z,19.28
2018-06-19T21:38:23.865Z,19.23
2018-06-19T21:41:23.841Z,19.23
2018-06-19T21:44:23.786Z,19.24
2018-06-19T21:47:23.778Z,19.18
2018-06-19T21:50:23.729Z,19.20
2018-06-19T21:53:23.734Z,19.20
2018-06-19T21:56:23.651Z,19.21
2018-06-19T21:59:23.649Z,19.33
2018-06-19T22:02:23.606Z,19.13
2018-06-19T22:05:23.572Z,19.17
2018-06-19T22:08:23.519Z,19.23
2018-06-19T22:11:23.511Z,19.18
2018-06-19T22:14:23.456Z,19.21
2018-06-19T22:17:23.443Z,19.23
2018-06-19T22:20:23.381Z,19.18
2018-06-19T22:23:23.382Z,19.21
2018-06-19T22:26:23.326Z,19.33
2018-06-19T22:29:23.298Z,19.31
2018-06-19T22:32:23.947Z,19.28
2018-06-19T22:35:23.241Z,19.21
2018-06-19T22:38:23.296Z,19.24
2018-06-19T22:41:23.163Z,19.25
2018-06-19T22:44:23.108Z,19.23
2018-06-19T22:47:23.097Z,19.20
2018-06-19T22:50:23.069Z,19.15
2018-06-19T22:53:23.031Z,19.13
2018-06-19T22:56:22.971Z,18.98
2018-06-19T22:59:22.972Z,18.97
2018-06-19T23:02:22.926Z,18.90
2018-06-19T23:05:22.941Z,18.91
2018-06-19T23:08:22.838Z,18.76
2018-06-19T23:11:22.829Z,18.82
2018-06-19T23:14:22.782Z,18.76
2018-06-19T23:17:22.767Z,18.80
2018-06-19T23:20:22.697Z,18.84
2018-06-19T23:23:22.768Z,18.77
2018-06-19T23:26:22.642Z,18.73
2018-06-19T23:29:22.621Z,18.74
2018-06-19T23:32:23.453Z,18.74
2018-06-19T23:35:22.563Z,18.72
2018-06-19T23:38:22.493Z,18.72
2018-06-19T23:41:22.477Z,18.72
2018-06-19T23:44:22.460Z,18.72
2018-06-19T23:47:22.424Z,18.67
2018-06-19T23:50:22.367Z,18.67
2018-06-19T23:53:22.351Z,18.76
2018-06-19T23:56:22.301Z,18.72
2018-06-19T23:59:22.302Z,18.72
